createdAt,value
2019-03-25T00:01:26.530Z,8.48
2019-03-25T00:03:57.017Z,8.46
2019-03-25T00:06:27.520Z,8.45
2019-03-25T00:09:05.389Z,8.50
2019-03-25T00:11:30.437Z,8.58
2019-03-25T00:14:00.936Z,8.56
2019-03-25T00:16:31.424Z,8.56
2019-03-25T00:19:01.921Z,8.60
2019-03-25T00:21:32.744Z,8.58
2019-03-25T00:24:03.272Z,8.58
2019-03-25T00:26:34.421Z,8.62
2019-03-25T00:29:04.874Z,8.64
2019-03-25T00:31:35.381Z,8.67
2019-03-25T00:34:05.960Z,8.69
2019-03-25T00:36:37.971Z,8.73
2019-03-25T00:39:09.212Z,8.76
2019-03-25T00:41:39.860Z,8.76
2019-03-25T00:44:10.294Z,8.71
2019-03-25T00:46:40.785Z,8.70
2019-03-25T00:49:11.302Z,8.65
2019-03-25T00:51:42.100Z,8.60
2019-03-25T00:54:12.906Z,8.53
2019-03-25T00:57:01.243Z,8.46
2019-03-25T00:59:31.783Z,8.43
2019-03-25T01:02:02.289Z,8.37
2019-03-25T01:04:33.906Z,8.31
2019-03-25T01:07:04.737Z,8.27
2019-03-25T01:09:35.681Z,8.23
2019-03-25T01:12:06.236Z,8.22
2019-03-25T01:14:37.862Z,8.22
2019-03-25T01:17:43.498Z,8.21
2019-03-25T01:20:14.185Z,8.22
2019-03-25T01:22:44.658Z,8.17
2019-03-25T01:25:15.278Z,8.14
2019-03-25T01:27:45.595Z,8.13
2019-03-25T01:30:16.215Z,8.06
2019-03-25T01:32:46.728Z,8.05
2019-03-25T01:35:17.561Z,8.02
2019-03-25T01:37:48.032Z,8.02
2019-03-25T01:40:18.595Z,7.99
2019-03-25T01:42:49.338Z,7.97
2019-03-25T01:45:19.829Z,8.03
2019-03-25T01:47:50.312Z,8.08
2019-03-25T01:50:22.607Z,8.13
2019-03-25T01:52:53.468Z,8.12
2019-03-25T01:55:24.010Z,8.12
2019-03-25T01:57:54.884Z,8.11
2019-03-25T02:00:25.440Z,8.08
2019-03-25T02:02:55.963Z,8.04
2019-03-25T02:05:26.457Z,7.99
2019-03-25T02:07:57.252Z,7.98
2019-03-25T02:10:27.697Z,7.97
2019-03-25T02:12:58.647Z,7.99
2019-03-25T02:15:29.157Z,8.04
2019-03-25T02:17:58.848Z,8.05
2019-03-25T02:20:29.385Z,8.06
2019-03-25T02:23:00.087Z,8.08
2019-03-25T02:25:30.581Z,8.02
2019-03-25T02:28:01.005Z,8.02
2019-03-25T02:30:31.455Z,7.97
2019-03-25T02:33:01.987Z,7.95
2019-03-25T02:35:32.330Z,7.95
2019-03-25T02:38:03.144Z,7.97
2019-03-25T02:40:33.806Z,7.99
2019-03-25T02:43:04.584Z,7.98
2019-03-25T02:45:35.078Z,7.98
2019-03-25T02:48:05.693Z,8.02
2019-03-25T02:50:36.146Z,8.00
2019-03-25T02:53:08.059Z,7.99
2019-03-25T02:55:41.961Z,8.01
2019-03-25T02:58:10.631Z,8.03
2019-03-25T03:00:41.219Z,8.06
2019-03-25T03:03:11.748Z,8.07
2019-03-25T03:05:43.455Z,8.06
2019-03-25T03:08:13.867Z,8.06
2019-03-25T03:10:44.723Z,8.06
2019-03-25T03:13:15.133Z,8.10
2019-03-25T03:15:46.003Z,8.12
2019-03-25T03:18:16.416Z,8.14
2019-03-25T03:20:46.863Z,8.10
2019-03-25T03:23:17.348Z,8.09
2019-03-25T03:25:57.084Z,8.06
2019-03-25T03:28:20.084Z,8.05
2019-03-25T03:30:51.734Z,8.03
2019-03-25T03:33:22.164Z,8.04
2019-03-25T03:35:52.708Z,8.07
2019-03-25T03:38:23.343Z,8.05
2019-03-25T03:40:53.691Z,8.05
2019-03-25T03:43:24.524Z,8.03
2019-03-25T03:45:55.044Z,8.02
2019-03-25T03:48:25.557Z,8.02
2019-03-25T03:50:56.372Z,8.04
2019-03-25T03:53:27.165Z,8.05
2019-03-25T03:56:11.918Z,8.05
2019-03-25T03:58:31.436Z,8.02
2019-03-25T04:01:01.789Z,8.01
2019-03-25T04:03:33.691Z,8.03
2019-03-25T04:06:04.182Z,8.00
2019-03-25T04:08:34.672Z,8.00
2019-03-25T04:11:05.214Z,7.97
2019-03-25T04:13:36.672Z,7.98
2019-03-25T04:16:07.248Z,7.95
2019-03-25T04:18:37.935Z,7.94
2019-03-25T04:21:08.416Z,7.93
2019-03-25T04:23:38.913Z,7.94
2019-03-25T04:26:09.712Z,7.94
2019-03-25T04:28:40.152Z,7.97
2019-03-25T04:31:11.841Z,7.95
2019-03-25T04:33:42.381Z,7.98
2019-03-25T04:36:12.888Z,8.00
2019-03-25T04:38:43.364Z,7.99
2019-03-25T04:41:13.895Z,7.96
2019-03-25T04:43:44.280Z,7.94
2019-03-25T04:46:14.782Z,7.86
2019-03-25T04:48:45.208Z,7.70
2019-03-25T04:51:15.709Z,7.56
2019-03-25T04:53:46.521Z,7.49
2019-03-25T04:56:17.093Z,7.51
2019-03-25T04:58:47.794Z,7.45
2019-03-25T05:01:18.625Z,7.44
2019-03-25T05:03:49.425Z,7.40
2019-03-25T05:06:19.909Z,7.39
2019-03-25T05:08:50.310Z,7.42
2019-03-25T05:11:30.589Z,7.45
2019-03-25T05:13:56.251Z,7.48
2019-03-25T05:16:27.128Z,7.43
2019-03-25T05:18:58.104Z,7.43
2019-03-25T05:21:28.784Z,7.38
2019-03-25T05:23:59.336Z,7.37
2019-03-25T05:26:30.088Z,7.36
2019-03-25T05:29:00.603Z,7.35
2019-03-25T05:31:31.045Z,7.37
2019-03-25T05:34:01.921Z,7.31
2019-03-25T05:36:32.365Z,7.30
2019-03-25T05:39:04.587Z,7.28
2019-03-25T05:41:35.441Z,7.26
2019-03-25T05:44:06.096Z,7.21
2019-03-25T05:46:36.542Z,7.18
2019-03-25T05:49:07.374Z,7.18
2019-03-25T05:51:37.815Z,7.14
2019-03-25T05:54:08.209Z,7.17
2019-03-25T05:56:38.833Z,7.17
2019-03-25T05:59:09.337Z,7.19
2019-03-25T06:01:43.991Z,7.20
2019-03-25T06:04:13.448Z,7.17
2019-03-25T06:06:43.846Z,7.19
2019-03-25T06:09:14.388Z,7.19
2019-03-25T06:11:44.875Z,7.21
2019-03-25T06:14:15.692Z,7.22
2019-03-25T06:16:46.207Z,7.24
2019-03-25T06:19:17.305Z,7.26
2019-03-25T06:21:47.793Z,7.30
2019-03-25T06:24:18.190Z,7.36
2019-03-25T06:26:48.683Z,7.38
2019-03-25T06:29:19.179Z,7.37
2019-03-25T06:31:49.846Z,7.34
2019-03-25T06:34:20.390Z,7.26
2019-03-25T06:36:51.227Z,7.23
2019-03-25T06:39:21.729Z,7.23
2019-03-25T06:41:52.216Z,7.25
2019-03-25T06:44:22.702Z,7.28
2019-03-25T06:46:54.446Z,7.29
2019-03-25T06:49:25.050Z,7.33
2019-03-25T06:51:55.455Z,7.39
2019-03-25T06:54:26.007Z,7.36
2019-03-25T06:56:56.561Z,7.39
2019-03-25T06:59:27.413Z,7.41
2019-03-25T07:01:57.893Z,7.46
2019-03-25T07:04:28.658Z,7.44
2019-03-25T07:06:59.261Z,7.46
2019-03-25T07:09:30.028Z,7.45
2019-03-25T07:12:01.028Z,7.43
2019-03-25T07:14:31.600Z,7.49
2019-03-25T07:17:02.144Z,7.50
2019-03-25T07:19:32.584Z,7.53
2019-03-25T07:22:03.053Z,7.59
2019-03-25T07:24:33.386Z,7.63
2019-03-25T07:27:04.459Z,7.66
2019-03-25T07:29:35.306Z,7.62
2019-03-25T07:32:05.956Z,7.64
2019-03-25T07:34:36.855Z,7.66
2019-03-25T07:37:07.712Z,7.71
2019-03-25T07:39:38.201Z,7.72
2019-03-25T07:42:09.055Z,7.74
2019-03-25T07:44:39.488Z,7.78
2019-03-25T07:47:10.269Z,7.79
2019-03-25T07:49:41.688Z,7.78
2019-03-25T07:52:12.250Z,7.81
2019-03-25T07:54:42.757Z,7.86
2019-03-25T07:57:13.311Z,7.90
2019-03-25T07:59:43.953Z,7.90
2019-03-25T08:02:15.346Z,7.88
2019-03-25T08:04:45.929Z,7.88
2019-03-25T08:07:16.465Z,7.89
2019-03-25T08:09:46.974Z,7.77
2019-03-25T08:12:17.780Z,7.71
2019-03-25T08:14:48.171Z,7.68
2019-03-25T08:17:18.636Z,7.62
2019-03-25T08:19:49.486Z,7.48
2019-03-25T08:22:20.056Z,7.48
2019-03-25T08:24:50.565Z,7.50
2019-03-25T08:27:21.040Z,7.55
2019-03-25T08:29:51.885Z,7.58
2019-03-25T08:32:22.752Z,7.67
2019-03-25T08:34:53.236Z,7.75
2019-03-25T08:37:23.878Z,7.78
2019-03-25T08:39:55.394Z,7.86
2019-03-25T08:42:26.300Z,7.94
2019-03-25T08:44:56.724Z,8.02
2019-03-25T08:47:27.225Z,8.16
2019-03-25T08:49:57.677Z,8.19
2019-03-25T08:52:28.181Z,8.23
2019-03-25T08:54:58.694Z,8.16
2019-03-25T08:57:29.311Z,8.11
2019-03-25T08:59:59.834Z,8.08
2019-03-25T09:02:30.774Z,8.11
2019-03-25T09:05:01.299Z,8.14
2019-03-25T09:07:31.930Z,8.19
2019-03-25T09:10:03.689Z,8.21
2019-03-25T09:12:34.193Z,8.26
2019-03-25T09:15:07.480Z,8.35
2019-03-25T09:17:37.972Z,8.41
2019-03-25T09:20:09.682Z,8.40
2019-03-25T09:22:40.555Z,8.46
2019-03-25T09:25:11.469Z,8.51
2019-03-25T09:27:42.384Z,8.60
2019-03-25T09:30:13.470Z,8.69
2019-03-25T09:32:43.952Z,8.71
2019-03-25T09:35:15.253Z,8.78
2019-03-25T09:37:46.133Z,8.88
2019-03-25T09:40:16.807Z,8.88
2019-03-25T09:42:47.228Z,8.78
2019-03-25T09:45:17.695Z,8.74
2019-03-25T09:47:48.285Z,8.86
2019-03-25T09:50:18.882Z,8.90
2019-03-25T09:52:49.769Z,8.80
2019-03-25T09:55:20.402Z,8.87
2019-03-25T09:57:51.004Z,8.96
2019-03-25T10:00:25.215Z,9.03
2019-03-25T10:02:56.734Z,9.15
2019-03-25T10:05:27.897Z,9.27
2019-03-25T10:07:58.454Z,9.21
2019-03-25T10:10:29.017Z,9.13
2019-03-25T10:12:59.595Z,9.12
2019-03-25T10:15:30.359Z,9.14
2019-03-25T10:18:00.846Z,9.18
2019-03-25T10:20:31.239Z,9.18
2019-03-25T10:23:02.052Z,9.15
2019-03-25T10:25:32.635Z,9.17
2019-03-25T10:28:03.177Z,9.29
2019-03-25T10:30:33.666Z,9.45
2019-03-25T10:33:04.255Z,9.67
2019-03-25T10:35:34.697Z,9.91
2019-03-25T10:38:05.633Z,9.97
2019-03-25T10:40:36.471Z,9.73
2019-03-25T10:43:06.998Z,9.32
2019-03-25T10:45:37.724Z,8.83
2019-03-25T10:48:08.883Z,8.33
2019-03-25T10:50:39.553Z,8.05
2019-03-25T10:53:10.155Z,7.92
2019-03-25T10:55:40.842Z,7.60
2019-03-25T10:58:11.329Z,7.51
2019-03-25T11:00:42.305Z,7.65
2019-03-25T11:03:13.174Z,7.86
2019-03-25T11:05:44.831Z,7.98
2019-03-25T11:08:15.382Z,8.18
2019-03-25T11:10:45.875Z,8.38
2019-03-25T11:13:16.648Z,8.58
2019-03-25T11:15:47.138Z,8.82
2019-03-25T11:18:17.626Z,9.03
2019-03-25T11:20:48.096Z,9.21
2019-03-25T11:23:18.485Z,9.35
2019-03-25T11:25:49.384Z,9.62
2019-03-25T11:28:20.221Z,9.87
2019-03-25T11:30:58.581Z,10.13
2019-03-25T11:33:29.332Z,10.27
2019-03-25T11:36:00.103Z,10.51
2019-03-25T11:38:30.916Z,10.68
2019-03-25T11:41:01.648Z,10.85
2019-03-25T11:43:32.071Z,11.01
2019-03-25T11:46:02.606Z,10.92
2019-03-25T11:48:33.442Z,10.56
2019-03-25T11:51:04.407Z,10.15
2019-03-25T11:53:35.158Z,9.62
2019-03-25T11:56:06.014Z,9.36
2019-03-25T11:58:36.543Z,8.79
2019-03-25T12:01:07.343Z,8.14
2019-03-25T12:03:37.870Z,7.69
2019-03-25T12:06:08.367Z,7.56
2019-03-25T12:08:38.862Z,7.60
2019-03-25T12:11:09.899Z,7.87
2019-03-25T12:13:40.405Z,8.23
2019-03-25T12:16:11.182Z,8.48
2019-03-25T12:18:41.712Z,8.78
2019-03-25T12:21:12.183Z,9.06
2019-03-25T12:23:42.745Z,9.40
2019-03-25T12:26:13.271Z,9.61
2019-03-25T12:28:44.280Z,9.73
2019-03-25T12:31:14.956Z,9.69
2019-03-25T12:33:45.515Z,9.78
2019-03-25T12:36:16.102Z,9.98
2019-03-25T12:38:47.499Z,10.29
2019-03-25T12:41:17.995Z,10.40
2019-03-25T12:43:48.565Z,10.07
2019-03-25T12:46:19.131Z,9.84
2019-03-25T12:48:49.635Z,9.83
2019-03-25T12:51:20.464Z,9.65
2019-03-25T12:53:51.624Z,9.72
2019-03-25T12:56:22.165Z,9.99
2019-03-25T12:58:52.629Z,10.26
2019-03-25T13:01:23.020Z,10.18
2019-03-25T13:03:53.527Z,9.63
2019-03-25T13:06:24.022Z,9.23
2019-03-25T13:08:54.632Z,9.30
2019-03-25T13:11:25.023Z,9.55
2019-03-25T13:13:55.553Z,9.75
2019-03-25T13:16:27.060Z,9.93
2019-03-25T13:18:57.559Z,10.32
2019-03-25T13:21:28.067Z,10.65
2019-03-25T13:23:58.581Z,10.83
2019-03-25T13:26:28.986Z,11.15
2019-03-25T13:29:02.283Z,11.41
2019-03-25T13:31:31.630Z,11.48
2019-03-25T13:34:02.057Z,11.89
2019-03-25T13:36:33.539Z,12.13
2019-03-25T13:39:05.636Z,12.04
2019-03-25T13:41:37.209Z,11.64
2019-03-25T13:44:07.936Z,11.32
2019-03-25T13:46:38.452Z,11.21
2019-03-25T13:49:09.627Z,10.82
2019-03-25T13:51:40.433Z,10.96
2019-03-25T13:54:11.037Z,11.36
2019-03-25T13:56:41.541Z,11.73
2019-03-25T13:59:11.956Z,11.70
2019-03-25T14:01:42.451Z,11.45
2019-03-25T14:04:14.260Z,11.16
2019-03-25T14:06:44.702Z,10.71
2019-03-25T14:09:15.148Z,10.38
2019-03-25T14:11:45.671Z,10.08
2019-03-25T14:14:16.522Z,9.70
2019-03-25T14:16:47.013Z,9.42
2019-03-25T14:19:17.520Z,9.29
2019-03-25T14:21:48.045Z,9.17
2019-03-25T14:24:18.541Z,8.98
2019-03-25T14:26:49.399Z,8.74
2019-03-25T14:29:19.904Z,8.73
2019-03-25T14:31:50.394Z,8.79
2019-03-25T14:34:20.804Z,8.84
2019-03-25T14:36:51.346Z,9.05
2019-03-25T14:39:21.741Z,9.36
2019-03-25T14:41:52.149Z,9.55
2019-03-25T14:44:22.568Z,9.68
2019-03-25T14:46:52.995Z,9.79
2019-03-25T14:49:23.435Z,9.88
2019-03-25T14:51:53.903Z,9.49
2019-03-25T14:54:24.411Z,9.44
2019-03-25T14:56:55.482Z,9.33
2019-03-25T14:59:26.220Z,9.26
2019-03-25T15:01:56.981Z,9.18
2019-03-25T15:04:27.410Z,9.29
2019-03-25T15:06:57.886Z,9.26
2019-03-25T15:09:28.273Z,9.31
2019-03-25T15:11:58.724Z,9.50
2019-03-25T15:14:29.317Z,9.76
2019-03-25T15:16:59.618Z,9.89
2019-03-25T15:19:30.299Z,10.29
2019-03-25T15:22:00.758Z,10.53
2019-03-25T15:24:31.103Z,10.47
2019-03-25T15:27:01.514Z,10.35
2019-03-25T15:29:32.066Z,10.21
2019-03-25T15:32:02.852Z,10.02
2019-03-25T15:34:33.361Z,9.82
2019-03-25T15:37:03.760Z,9.77
2019-03-25T15:39:34.947Z,9.80
2019-03-25T15:42:05.755Z,9.84
2019-03-25T15:44:36.287Z,9.86
2019-03-25T15:47:06.873Z,9.89
2019-03-25T15:49:37.347Z,9.90
2019-03-25T15:52:07.810Z,9.95
2019-03-25T15:54:38.278Z,9.94
2019-03-25T15:57:08.738Z,9.97
2019-03-25T15:59:39.212Z,9.99
2019-03-25T16:02:10.008Z,10.02
2019-03-25T16:04:40.535Z,10.14
2019-03-25T16:07:11.091Z,10.11
2019-03-25T16:09:41.590Z,10.16
2019-03-25T16:12:12.428Z,10.30
2019-03-25T16:14:42.859Z,10.41
2019-03-25T16:17:13.358Z,10.26
2019-03-25T16:19:44.107Z,10.28
2019-03-25T16:22:14.627Z,10.34
2019-03-25T16:24:45.718Z,9.98
2019-03-25T16:27:16.602Z,9.72
2019-03-25T16:29:47.103Z,9.64
2019-03-25T16:32:17.788Z,9.48
2019-03-25T16:34:48.287Z,9.42
2019-03-25T16:37:18.772Z,9.53
2019-03-25T16:39:49.613Z,9.53
2019-03-25T16:42:20.060Z,9.75
2019-03-25T16:44:50.903Z,10.05
2019-03-25T16:47:21.447Z,10.08
2019-03-25T16:49:53.078Z,10.20
2019-03-25T16:52:23.648Z,10.13
2019-03-25T16:54:55.165Z,10.03
2019-03-25T16:57:25.633Z,10.05
2019-03-25T16:59:56.437Z,9.97
2019-03-25T17:02:28.680Z,9.82
2019-03-25T17:04:59.090Z,9.73
2019-03-25T17:07:29.892Z,9.70
2019-03-25T17:10:00.575Z,9.71
2019-03-25T17:12:31.331Z,9.73
2019-03-25T17:15:02.105Z,9.70
2019-03-25T17:17:33.431Z,9.62
2019-03-25T17:20:04.253Z,9.65
2019-03-25T17:22:34.772Z,9.73
2019-03-25T17:25:05.718Z,9.73
2019-03-25T17:27:36.306Z,9.77
2019-03-25T17:30:09.192Z,9.78
2019-03-25T17:32:39.619Z,9.75
2019-03-25T17:35:11.833Z,9.77
2019-03-25T17:37:42.362Z,9.79
2019-03-25T17:40:16.294Z,9.79
2019-03-25T17:43:05.694Z,9.88
2019-03-25T17:45:36.068Z,9.83
2019-03-25T17:48:06.634Z,9.87
2019-03-25T17:50:40.636Z,9.96
2019-03-25T17:53:11.203Z,10.02
2019-03-25T17:55:44.741Z,9.99
2019-03-25T17:58:36.521Z,9.98
2019-03-25T18:01:16.040Z,9.94
2019-03-25T18:03:46.619Z,9.88
2019-03-25T18:06:17.098Z,9.84
2019-03-25T18:08:47.556Z,9.78
2019-03-25T18:11:22.825Z,9.70
2019-03-25T18:13:50.637Z,9.66
2019-03-25T18:16:21.455Z,9.62
2019-03-25T18:18:52.457Z,9.58
2019-03-25T18:21:23.083Z,9.55
2019-03-25T18:23:53.876Z,9.48
2019-03-25T18:26:30.715Z,9.46
2019-03-25T18:29:01.213Z,9.40
2019-03-25T18:31:38.858Z,9.43
2019-03-25T18:34:04.574Z,9.47
2019-03-25T18:36:35.230Z,9.53
2019-03-25T18:39:08.445Z,9.57
2019-03-25T18:41:39.000Z,9.60
2019-03-25T18:44:09.814Z,9.60
2019-03-25T18:46:40.379Z,9.55
2019-03-25T18:49:11.212Z,9.50
2019-03-25T18:51:41.758Z,9.46
2019-03-25T18:54:12.586Z,9.42
2019-03-25T18:56:45.284Z,9.42
2019-03-25T18:59:16.028Z,9.49
2019-03-25T19:01:54.341Z,9.55
2019-03-25T19:04:19.125Z,9.59
2019-03-25T19:06:50.144Z,9.65
2019-03-25T19:09:21.441Z,9.71
2019-03-25T19:11:52.361Z,9.65
2019-03-25T19:14:23.156Z,9.65
2019-03-25T19:16:54.049Z,9.70
2019-03-25T19:19:24.892Z,9.74
2019-03-25T19:21:55.439Z,9.79
2019-03-25T19:24:27.630Z,9.81
2019-03-25T19:26:58.184Z,9.83
2019-03-25T19:29:28.739Z,9.79
2019-03-25T19:32:06.564Z,9.81
2019-03-25T19:34:31.474Z,9.80
2019-03-25T19:37:01.970Z,9.74
2019-03-25T19:39:34.972Z,9.71
2019-03-25T19:42:05.511Z,9.70
2019-03-25T19:44:36.127Z,9.69
2019-03-25T19:47:07.071Z,9.65
2019-03-25T19:49:37.486Z,9.62
2019-03-25T19:52:09.458Z,9.62
2019-03-25T19:54:40.207Z,9.62
2019-03-25T19:57:11.023Z,9.61
2019-03-25T19:59:41.462Z,9.58
2019-03-25T20:02:19.073Z,9.58
2019-03-25T20:04:44.159Z,9.51
2019-03-25T20:07:14.656Z,9.49
2019-03-25T20:09:45.194Z,9.44
2019-03-25T20:12:15.766Z,9.42
2019-03-25T20:14:46.252Z,9.41
2019-03-25T20:17:16.873Z,9.35
2019-03-25T20:19:47.398Z,9.32
2019-03-25T20:22:20.702Z,9.28
2019-03-25T20:24:51.818Z,9.24
2019-03-25T20:27:22.525Z,9.22
2019-03-25T20:29:53.030Z,9.18
2019-03-25T20:32:31.585Z,9.13
2019-03-25T20:34:55.931Z,9.11
2019-03-25T20:37:29.824Z,9.10
2019-03-25T20:40:00.799Z,9.06
2019-03-25T20:42:31.835Z,9.03
2019-03-25T20:45:02.339Z,9.03
2019-03-25T20:47:34.984Z,9.03
2019-03-25T20:50:05.839Z,9.06
2019-03-25T20:52:36.257Z,9.06
2019-03-25T20:55:07.215Z,9.08
2019-03-25T20:57:40.513Z,9.10
2019-03-25T21:00:10.651Z,9.08
2019-03-25T21:02:45.295Z,9.06
2019-03-25T21:05:17.064Z,9.01
2019-03-25T21:07:47.896Z,9.03
2019-03-25T21:10:18.829Z,9.03
2019-03-25T21:12:49.329Z,9.04
2019-03-25T21:15:19.791Z,9.06
2019-03-25T21:17:50.575Z,9.05
2019-03-25T21:20:21.453Z,9.07
2019-03-25T21:22:51.942Z,9.01
2019-03-25T21:25:22.621Z,9.02
2019-03-25T21:27:53.362Z,9.03
2019-03-25T21:30:25.018Z,9.04
2019-03-25T21:32:58.488Z,9.03
2019-03-25T21:35:28.489Z,9.01
2019-03-25T21:37:58.869Z,9.04
2019-03-25T21:40:29.370Z,9.05
2019-03-25T21:42:59.760Z,9.05
2019-03-25T21:45:30.745Z,9.03
2019-03-25T21:48:01.789Z,9.02
2019-03-25T21:50:32.208Z,8.99
2019-03-25T21:53:03.100Z,8.94
2019-03-25T21:55:34.141Z,8.90
2019-03-25T21:58:06.401Z,8.88
2019-03-25T22:00:36.970Z,8.86
2019-03-25T22:03:12.033Z,8.83
2019-03-25T22:05:39.614Z,8.69
2019-03-25T22:08:10.539Z,8.64
2019-03-25T22:10:42.966Z,8.59
2019-03-25T22:13:13.458Z,8.63
2019-03-25T22:15:43.956Z,8.64
2019-03-25T22:18:14.439Z,8.64
2019-03-25T22:20:45.450Z,8.65
2019-03-25T22:23:15.909Z,8.64
2019-03-25T22:25:49.424Z,8.63
2019-03-25T22:28:20.275Z,8.59
2019-03-25T22:30:51.013Z,8.58
2019-03-25T22:33:25.933Z,8.55
2019-03-25T22:35:53.423Z,8.54
2019-03-25T22:38:23.902Z,8.49
2019-03-25T22:40:54.387Z,8.50
2019-03-25T22:43:24.785Z,8.51
2019-03-25T22:45:56.346Z,8.53
2019-03-25T22:48:27.451Z,8.48
2019-03-25T22:50:57.855Z,8.48
2019-03-25T22:53:28.294Z,8.45
2019-03-25T22:55:58.773Z,8.38
2019-03-25T22:58:29.234Z,8.36
2019-03-25T23:01:01.638Z,8.41
2019-03-25T23:03:39.179Z,8.46
2019-03-25T23:06:05.086Z,8.45
2019-03-25T23:08:35.615Z,8.40
2019-03-25T23:11:06.089Z,8.41
2019-03-25T23:13:36.480Z,8.43
2019-03-25T23:16:07.039Z,8.43
2019-03-25T23:18:37.426Z,8.43
2019-03-25T23:21:07.888Z,8.37
2019-03-25T23:23:38.395Z,8.35
2019-03-25T23:26:09.221Z,8.37
2019-03-25T23:28:39.618Z,8.40
2019-03-25T23:31:10.359Z,8.41
2019-03-25T23:33:51.750Z,8.39
2019-03-25T23:36:14.289Z,8.39
2019-03-25T23:38:44.610Z,8.40
2019-03-25T23:41:15.764Z,8.40
2019-03-25T23:43:46.170Z,8.37
2019-03-25T23:46:16.784Z,8.40
2019-03-25T23:48:47.173Z,8.40
2019-03-25T23:51:17.983Z,8.35
2019-03-25T23:53:48.615Z,8.34
2019-03-25T23:56:19.053Z,8.33
2019-03-25T23:58:49.482Z,8.33
